Sti Battery — V7DR9 — position and weather

sailwx.info

Track history (hours):
 
Tides and Currents Weather Stations Pressure Air Temp Water Temp Dewpoint Dewpoint Depression Visibility Wind Speed Wind Dir Waves Ship Positions

Sti Battery

Last reported at 2018-Apr-28 17:42 UTC. Time now 2018-May-22 19:11 UTC.
Position N 09°11' W 079°52'.
Warning: this ship's position is 24 days out of date.

Length 183 m; draft 10.7 m.

Type: Ship (hazmat cat B). MMSI: 538005425.

Date/timePositionNaut miles runAvg speedWind from/ knotsBaromVisibWave heightAir tempDewpointWater temp
2018-Apr-28 17:42N 09°11' W 079°52'410.5
2018-Apr-28 17:20N 09°13' W 079°55'3 8.2
2018-Apr-28 17:00N 09°15' W 079°55'1 1.9
2018-Apr-28 16:30N 09°16' W 079°55'0 0.6
2018-Apr-28 16:00N 09°17' W 079°55'0 0.5
2018-Apr-28 15:28N 09°17' W 079°55'0 0.1
2018-Apr-28 15:00N 09°17' W 079°55'1 1.3
2018-Apr-28 14:30N 09°18' W 079°55'2 3.8
2018-Apr-28 14:00N 09°19' W 079°55'3 6.0
2018-Apr-28 13:30N 09°22' W 079°56'0 0.6
2018-Apr-28 13:00N 09°23' W 079°56'0 0.0
2018-Apr-28 12:30N 09°23' W 079°56'0 0.0
2018-Apr-28 12:00N 09°23' W 079°56'0 0.0
2018-Apr-28 11:30N 09°23' W 079°56'0 0.0
2018-Apr-28 11:00N 09°23' W 079°56'0 0.0
2018-Apr-28 10:30N 09°23' W 079°56'0 0.0
2018-Apr-28 10:00N 09°23' W 079°56'0 0.0
2018-Apr-28 09:30N 09°23' W 079°56'0 0.0
2018-Apr-28 09:00N 09°23' W 079°56'0 0.0
2018-Apr-28 08:30N 09°23' W 079°56'0 0.0
2018-Apr-28 07:57N 09°23' W 079°56'0 0.1
2018-Apr-28 07:30N 09°23' W 079°56'0 0.1
2018-Apr-28 07:00N 09°23' W 079°56'0 0.0
2018-Apr-28 06:27N 09°23' W 079°56'0 0.0
2018-Apr-28 06:00N 09°23' W 079°56'0 0.0
2018-Apr-28 05:30N 09°23' W 079°56'0 0.0
2018-Apr-28 05:00N 09°23' W 079°56'0 0.0
2018-Apr-28 04:30N 09°23' W 079°56'0 0.0
2018-Apr-28 04:00N 09°23' W 079°56'0 0.0
2018-Apr-28 03:30N 09°23' W 079°56'0 0.0
2018-Apr-28 03:00N 09°23' W 079°56'0 0.0
2018-Apr-28 02:30N 09°23' W 079°56'0 0.0
2018-Apr-28 02:00N 09°23' W 079°56'0 0.1
2018-Apr-28 01:30N 09°23' W 079°56'0 0.1
2018-Apr-28 01:00N 09°23' W 079°56'0 0.0
2018-Apr-28 00:30N 09°23' W 079°56'0 0.1
2018-Apr-28 00:00N 09°23' W 079°56'0 0.0
2018-Apr-27 23:30N 09°23' W 079°56'0 0.0
2018-Apr-27 23:00N 09°23' W 079°56'0 0.1
2018-Apr-27 22:30N 09°23' W 079°56'0 0.1
2018-Apr-27 21:59N 09°23' W 079°56'0 0.1
2018-Apr-27 21:29N 09°23' W 079°56'0 0.1
2018-Apr-27 20:57N 09°23' W 079°56'0 0.0
2018-Apr-27 20:30N 09°23' W 079°56'0 0.0
2018-Apr-27 19:59N 09°23' W 079°56'0 0.0
2018-Apr-27 19:30N 09°23' W 079°56'0 0.1
2018-Apr-27 18:59N 09°23' W 079°56'0 0.1
2018-Apr-27 18:30N 09°23' W 079°56'0 0.0
2018-Apr-27 18:00N 09°23' W 079°56'0 0.0
2018-Apr-27 17:30N 09°23' W 079°56'0 0.1
2018-Apr-27 17:00N 09°23' W 079°56'0 0.0
2018-Apr-27 16:30N 09°23' W 079°56'0 0.0
2018-Apr-27 15:59N 09°23' W 079°56'0 0.1
2018-Apr-27 15:30N 09°23' W 079°56'0 0.1
2018-Apr-27 14:59N 09°23' W 079°56'0 0.4
2018-Apr-27 14:30N 09°23' W 079°56'1 2.9
2018-Apr-27 14:00N 09°24' W 079°55'3 6.8
2018-Apr-27 13:30N 09°27' W 079°55'3 3.5
2018-Apr-27 12:41N 09°30' W 079°53'1 6.3
2018-Apr-27 12:30N 09°31' W 079°54'  
2018-Apr-22 06:37N 28°55' W 094°00'311.5
2018-Apr-22 06:21N 28°57' W 094°03'411.6
2018-Apr-22 05:59N 28°59' W 094°07'711.6
2018-Apr-22 05:24N 29°03' W 094°13'511.3
2018-Apr-22 04:59N 29°05' W 094°18'1910.1
2018-Apr-22 03:09N 29°18' W 094°34'0 0.3
2018-Apr-22 02:31N 29°18' W 094°34'0 0.1
2018-Apr-22 02:25N 29°18' W 094°34'0 0.0
2018-Apr-22 01:52N 29°18' W 094°34'0 0.0
2018-Apr-22 01:28N 29°18' W 094°34'0 0.1
2018-Apr-22 00:52N 29°18' W 094°34'19 8.2
2018-Apr-21 22:31N 29°29' W 094°52'011.1
2018-Apr-21 22:30N 29°29' W 094°52'510.5
2018-Apr-21 22:00N 29°34' W 094°55'5 9.1
2018-Apr-21 21:30N 29°38' W 094°58'5 9.1
2018-Apr-21 21:00N 29°42' W 094°60'4 7.0
2018-Apr-21 20:30N 29°44' W 095°03'3 5.1
2018-Apr-21 19:58N 29°45' W 095°06'3 5.5
2018-Apr-21 19:30N 29°44' W 095°09'1 0.0
2018-Apr-19 19:01N 29°44' W 095°10'0 0.7
2018-Apr-19 18:49N 29°45' W 095°10'1 3.9
2018-Apr-19 18:30N 29°44' W 095°09'3 5.7
2018-Apr-19 18:00N 29°45' W 095°06'3 6.6
2018-Apr-19 17:30N 29°44' W 095°02'4 7.9
2018-Apr-19 17:00N 29°41' W 094°59'510.4
2018-Apr-19 16:31N 29°36' W 094°57'611.5
2018-Apr-19 16:01N 29°31' W 094°53'612.3
2018-Apr-19 15:30N 29°26' W 094°50'20 2.8
2018-Apr-19 08:17N 29°17' W 094°29'0 0.0
2018-Apr-19 07:56N 29°17' W 094°29'0 0.0
2018-Apr-19 07:29N 29°17' W 094°29'0 0.0
2018-Apr-19 06:58N 29°17' W 094°29'0 0.0
2018-Apr-19 06:26N 29°17' W 094°29'0 0.0
2018-Apr-19 05:56N 29°17' W 094°29'0 0.0
2018-Apr-19 05:23N 29°17' W 094°29'0 0.0
2018-Apr-19 04:58N 29°17' W 094°29'0 0.0
2018-Apr-19 04:25N 29°17' W 094°29'0 0.0
2018-Apr-19 03:59N 29°17' W 094°29'0 0.0
2018-Apr-19 03:28N 29°17' W 094°29'0 0.0
2018-Apr-19 02:58N 29°17' W 094°29'  
Track history (hours):
 
Tides and Currents Weather Stations Pressure Air Temp Water Temp Dewpoint Dewpoint Depression Visibility Wind Speed Wind Dir Waves Ship Positions

Sti Battery

Last reported at 2018-Apr-28 17:42 UTC. Time now 2018-May-22 19:11 UTC.
Position N 09°11' W 079°52'.
Warning: this ship's position is 24 days out of date.

Length 183 m; draft 10.7 m.

Type: Ship (hazmat cat B). MMSI: 538005425.

Date/timePositionNaut miles runAvg speedWind from/ knotsBaromVisibWave heightAir tempDewpointWater temp
2018-Apr-28 17:42N 09°11' W 079°52'410.5
2018-Apr-28 17:20N 09°13' W 079°55'3 8.2
2018-Apr-28 17:00N 09°15' W 079°55'1 1.9
2018-Apr-28 16:30N 09°16' W 079°55'0 0.6
2018-Apr-28 16:00N 09°17' W 079°55'0 0.5
2018-Apr-28 15:28N 09°17' W 079°55'0 0.1
2018-Apr-28 15:00N 09°17' W 079°55'1 1.3
2018-Apr-28 14:30N 09°18' W 079°55'2 3.8
2018-Apr-28 14:00N 09°19' W 079°55'3 6.0
2018-Apr-28 13:30N 09°22' W 079°56'0 0.6
2018-Apr-28 13:00N 09°23' W 079°56'0 0.0
2018-Apr-28 12:30N 09°23' W 079°56'0 0.0
2018-Apr-28 12:00N 09°23' W 079°56'0 0.0
2018-Apr-28 11:30N 09°23' W 079°56'0 0.0
2018-Apr-28 11:00N 09°23' W 079°56'0 0.0
2018-Apr-28 10:30N 09°23' W 079°56'0 0.0
2018-Apr-28 10:00N 09°23' W 079°56'0 0.0
2018-Apr-28 09:30N 09°23' W 079°56'0 0.0
2018-Apr-28 09:00N 09°23' W 079°56'0 0.0
2018-Apr-28 08:30N 09°23' W 079°56'0 0.0
2018-Apr-28 07:57N 09°23' W 079°56'0 0.1
2018-Apr-28 07:30N 09°23' W 079°56'0 0.1
2018-Apr-28 07:00N 09°23' W 079°56'0 0.0
2018-Apr-28 06:27N 09°23' W 079°56'0 0.0
2018-Apr-28 06:00N 09°23' W 079°56'0 0.0
2018-Apr-28 05:30N 09°23' W 079°56'0 0.0
2018-Apr-28 05:00N 09°23' W 079°56'0 0.0
2018-Apr-28 04:30N 09°23' W 079°56'0 0.0
2018-Apr-28 04:00N 09°23' W 079°56'0 0.0
2018-Apr-28 03:30N 09°23' W 079°56'0 0.0
2018-Apr-28 03:00N 09°23' W 079°56'0 0.0
2018-Apr-28 02:30N 09°23' W 079°56'0 0.0
2018-Apr-28 02:00N 09°23' W 079°56'0 0.1
2018-Apr-28 01:30N 09°23' W 079°56'0 0.1
2018-Apr-28 01:00N 09°23' W 079°56'0 0.0
2018-Apr-28 00:30N 09°23' W 079°56'0 0.1
2018-Apr-28 00:00N 09°23' W 079°56'0 0.0
2018-Apr-27 23:30N 09°23' W 079°56'0 0.0
2018-Apr-27 23:00N 09°23' W 079°56'0 0.1
2018-Apr-27 22:30N 09°23' W 079°56'0 0.1
2018-Apr-27 21:59N 09°23' W 079°56'0 0.1
2018-Apr-27 21:29N 09°23' W 079°56'0 0.1
2018-Apr-27 20:57N 09°23' W 079°56'0 0.0
2018-Apr-27 20:30N 09°23' W 079°56'0 0.0
2018-Apr-27 19:59N 09°23' W 079°56'0 0.0
2018-Apr-27 19:30N 09°23' W 079°56'0 0.1
2018-Apr-27 18:59N 09°23' W 079°56'0 0.1
2018-Apr-27 18:30N 09°23' W 079°56'0 0.0
2018-Apr-27 18:00N 09°23' W 079°56'0 0.0
2018-Apr-27 17:30N 09°23' W 079°56'0 0.1
2018-Apr-27 17:00N 09°23' W 079°56'0 0.0
2018-Apr-27 16:30N 09°23' W 079°56'0 0.0
2018-Apr-27 15:59N 09°23' W 079°56'0 0.1
2018-Apr-27 15:30N 09°23' W 079°56'0 0.1
2018-Apr-27 14:59N 09°23' W 079°56'0 0.4
2018-Apr-27 14:30N 09°23' W 079°56'1 2.9
2018-Apr-27 14:00N 09°24' W 079°55'3 6.8
2018-Apr-27 13:30N 09°27' W 079°55'3 3.5
2018-Apr-27 12:41N 09°30' W 079°53'1 6.3
2018-Apr-27 12:30N 09°31' W 079°54'  
2018-Apr-22 06:37N 28°55' W 094°00'311.5
2018-Apr-22 06:21N 28°57' W 094°03'411.6
2018-Apr-22 05:59N 28°59' W 094°07'711.6
2018-Apr-22 05:24N 29°03' W 094°13'511.3
2018-Apr-22 04:59N 29°05' W 094°18'1910.1
2018-Apr-22 03:09N 29°18' W 094°34'0 0.3
2018-Apr-22 02:31N 29°18' W 094°34'0 0.1
2018-Apr-22 02:25N 29°18' W 094°34'0 0.0
2018-Apr-22 01:52N 29°18' W 094°34'0 0.0
2018-Apr-22 01:28N 29°18' W 094°34'0 0.1
2018-Apr-22 00:52N 29°18' W 094°34'19 8.2
2018-Apr-21 22:31N 29°29' W 094°52'011.1
2018-Apr-21 22:30N 29°29' W 094°52'510.5
2018-Apr-21 22:00N 29°34' W 094°55'5 9.1
2018-Apr-21 21:30N 29°38' W 094°58'5 9.1
2018-Apr-21 21:00N 29°42' W 094°60'4 7.0
2018-Apr-21 20:30N 29°44' W 095°03'3 5.1
2018-Apr-21 19:58N 29°45' W 095°06'3 5.5
2018-Apr-21 19:30N 29°44' W 095°09'1 0.0
2018-Apr-19 19:01N 29°44' W 095°10'0 0.7
2018-Apr-19 18:49N 29°45' W 095°10'1 3.9
2018-Apr-19 18:30N 29°44' W 095°09'3 5.7
2018-Apr-19 18:00N 29°45' W 095°06'3 6.6
2018-Apr-19 17:30N 29°44' W 095°02'4 7.9
2018-Apr-19 17:00N 29°41' W 094°59'510.4
2018-Apr-19 16:31N 29°36' W 094°57'611.5
2018-Apr-19 16:01N 29°31' W 094°53'612.3
2018-Apr-19 15:30N 29°26' W 094°50'20 2.8
2018-Apr-19 08:17N 29°17' W 094°29'0 0.0
2018-Apr-19 07:56N 29°17' W 094°29'0 0.0
2018-Apr-19 07:29N 29°17' W 094°29'0 0.0
2018-Apr-19 06:58N 29°17' W 094°29'0 0.0
2018-Apr-19 06:26N 29°17' W 094°29'0 0.0
2018-Apr-19 05:56N 29°17' W 094°29'0 0.0
2018-Apr-19 05:23N 29°17' W 094°29'0 0.0
2018-Apr-19 04:58N 29°17' W 094°29'0 0.0
2018-Apr-19 04:25N 29°17' W 094°29'0 0.0
2018-Apr-19 03:59N 29°17' W 094°29'0 0.0
2018-Apr-19 03:28N 29°17' W 094°29'0 0.0
2018-Apr-19 02:58N 29°17' W 094°29'  

Dump ship's entire track history